sensor_id;sensor_type;location;lat;lon;timestamp;temperature;humidity
27506;DHT22;14939;43.596;1.320;2023-06-19T00:00:39;21.20;95.20
27506;DHT22;14939;43.596;1.320;2023-06-19T00:03:05;21.20;95.40
27506;DHT22;14939;43.596;1.320;2023-06-19T00:05:30;21.10;95.60
27506;DHT22;14939;43.596;1.320;2023-06-19T00:07:56;21.10;95.70
27506;DHT22;14939;43.596;1.320;2023-06-19T00:10:21;21.10;96.10
27506;DHT22;14939;43.596;1.320;2023-06-19T00:12:47;21.10;96.00
27506;DHT22;14939;43.596;1.320;2023-06-19T00:15:13;21.10;96.30
27506;DHT22;14939;43.596;1.320;2023-06-19T00:17:39;21.10;96.50
27506;DHT22;14939;43.596;1.320;2023-06-19T00:20:05;21.10;96.60
27506;DHT22;14939;43.596;1.320;2023-06-19T00:22:31;21.00;96.80
27506;DHT22;14939;43.596;1.320;2023-06-19T00:24:56;21.10;96.90
27506;DHT22;14939;43.596;1.320;2023-06-19T00:27:22;21.00;96.80
27506;DHT22;14939;43.596;1.320;2023-06-19T00:29:50;21.00;97.20
27506;DHT22;14939;43.596;1.320;2023-06-19T00:32:16;21.10;96.90
27506;DHT22;14939;43.596;1.320;2023-06-19T00:34:41;21.10;97.70
27506;DHT22;14939;43.596;1.320;2023-06-19T00:37:08;21.10;98.30
27506;DHT22;14939;43.596;1.320;2023-06-19T00:39:35;21.10;98.20
27506;DHT22;14939;43.596;1.320;2023-06-19T00:42:00;21.10;98.40
27506;DHT22;14939;43.596;1.320;2023-06-19T00:44:26;21.10;98.90
27506;DHT22;14939;43.596;1.320;2023-06-19T00:46:55;21.10;99.20
27506;DHT22;14939;43.596;1.320;2023-06-19T00:49:21;21.10;99.30
27506;DHT22;14939;43.596;1.320;2023-06-19T00:51:47;21.10;99.30
27506;DHT22;14939;43.596;1.320;2023-06-19T00:54:13;21.00;99.60
27506;DHT22;14939;43.596;1.320;2023-06-19T00:56:38;21.10;99.80
27506;DHT22;14939;43.596;1.320;2023-06-19T00:59:06;21.10;99.70
27506;DHT22;14939;43.596;1.320;2023-06-19T01:01:32;21.10;99.80
27506;DHT22;14939;43.596;1.320;2023-06-19T01:03:59;21.10;99.90
27506;DHT22;14939;43.596;1.320;2023-06-19T01:06:25;21.20;99.90
27506;DHT22;14939;43.596;1.320;2023-06-19T01:09:01;21.20;99.80
27506;DHT22;14939;43.596;1.320;2023-06-19T01:11:35;21.10;99.80
27506;DHT22;14939;43.596;1.320;2023-06-19T01:14:15;21.10;99.60
27506;DHT22;14939;43.596;1.320;2023-06-19T01:16:42;21.00;99.60
27506;DHT22;14939;43.596;1.320;2023-06-19T01:19:09;21.00;99.30
27506;DHT22;14939;43.596;1.320;2023-06-19T01:21:35;20.90;99.70
27506;DHT22;14939;43.596;1.320;2023-06-19T01:24:02;20.90;99.90
27506;DHT22;14939;43.596;1.320;2023-06-19T01:26:27;20.80;99.30
27506;DHT22;14939;43.596;1.320;2023-06-19T01:28:53;20.70;98.60
27506;DHT22;14939;43.596;1.320;2023-06-19T01:31:37;20.70;98.00
27506;DHT22;14939;43.596;1.320;2023-06-19T01:34:04;20.50;97.60
27506;DHT22;14939;43.596;1.320;2023-06-19T01:36:31;20.40;96.60
27506;DHT22;14939;43.596;1.320;2023-06-19T01:38:57;20.30;96.80
27506;DHT22;14939;43.596;1.320;2023-06-19T01:41:23;20.20;96.20
27506;DHT22;14939;43.596;1.320;2023-06-19T01:43:50;20.20;96.70
27506;DHT22;14939;43.596;1.320;2023-06-19T01:46:16;20.10;96.10
27506;DHT22;14939;43.596;1.320;2023-06-19T01:48:42;20.10;95.60
27506;DHT22;14939;43.596;1.320;2023-06-19T01:51:07;20.00;96.20
27506;DHT22;14939;43.596;1.320;2023-06-19T01:53:33;20.00;95.90
27506;DHT22;14939;43.596;1.320;2023-06-19T01:55:59;19.90;95.50
27506;DHT22;14939;43.596;1.320;2023-06-19T01:58:25;19.90;95.60
27506;DHT22;14939;43.596;1.320;2023-06-19T02:00:51;19.80;95.40
27506;DHT22;14939;43.596;1.320;2023-06-19T02:03:16;19.70;95.70
27506;DHT22;14939;43.596;1.320;2023-06-19T02:05:42;19.70;95.80
27506;DHT22;14939;43.596;1.320;2023-06-19T02:08:07;19.60;95.50
27506;DHT22;14939;43.596;1.320;2023-06-19T02:10:33;19.60;95.50
27506;DHT22;14939;43.596;1.320;2023-06-19T02:12:59;19.60;94.90
27506;DHT22;14939;43.596;1.320;2023-06-19T02:15:24;19.60;95.20
27506;DHT22;14939;43.596;1.320;2023-06-19T02:17:50;19.40;95.20
27506;DHT22;14939;43.596;1.320;2023-06-19T02:20:20;19.40;95.80
27506;DHT22;14939;43.596;1.320;2023-06-19T02:22:46;19.40;95.70
27506;DHT22;14939;43.596;1.320;2023-06-19T02:25:12;19.40;95.20
27506;DHT22;14939;43.596;1.320;2023-06-19T02:27:37;19.40;94.90
27506;DHT22;14939;43.596;1.320;2023-06-19T02:30:03;19.30;95.70
27506;DHT22;14939;43.596;1.320;2023-06-19T02:32:30;19.20;95.60
27506;DHT22;14939;43.596;1.320;2023-06-19T02:34:55;19.20;95.80
27506;DHT22;14939;43.596;1.320;2023-06-19T02:37:21;19.10;96.30
27506;DHT22;14939;43.596;1.320;2023-06-19T02:39:46;19.10;96.10
27506;DHT22;14939;43.596;1.320;2023-06-19T02:42:12;19.10;96.30
27506;DHT22;14939;43.596;1.320;2023-06-19T02:44:37;19.10;95.80
27506;DHT22;14939;43.596;1.320;2023-06-19T02:47:03;19.00;95.80
27506;DHT22;14939;43.596;1.320;2023-06-19T02:49:29;19.00;96.80
27506;DHT22;14939;43.596;1.320;2023-06-19T02:51:55;18.90;96.60
27506;DHT22;14939;43.596;1.320;2023-06-19T02:54:21;18.90;96.40
27506;DHT22;14939;43.596;1.320;2023-06-19T02:56:46;18.90;97.20
27506;DHT22;14939;43.596;1.320;2023-06-19T02:59:12;18.80;97.60
27506;DHT22;14939;43.596;1.320;2023-06-19T03:01:37;18.80;97.20
27506;DHT22;14939;43.596;1.320;2023-06-19T03:04:03;18.80;97.10
27506;DHT22;14939;43.596;1.320;2023-06-19T03:06:28;18.70;97.50
27506;DHT22;14939;43.596;1.320;2023-06-19T03:08:54;18.70;97.90
27506;DHT22;14939;43.596;1.320;2023-06-19T03:11:19;18.70;97.50
27506;DHT22;14939;43.596;1.320;2023-06-19T03:16:11;18.70;97.80
27506;DHT22;14939;43.596;1.320;2023-06-19T03:18:37;18.60;97.70
27506;DHT22;14939;43.596;1.320;2023-06-19T03:21:02;18.60;98.30
27506;DHT22;14939;43.596;1.320;2023-06-19T03:23:28;18.60;97.80
27506;DHT22;14939;43.596;1.320;2023-06-19T03:25:53;18.50;98.10
27506;DHT22;14939;43.596;1.320;2023-06-19T03:28:19;18.50;98.10
27506;DHT22;14939;43.596;1.320;2023-06-19T03:30:45;18.50;98.00
27506;DHT22;14939;43.596;1.320;2023-06-19T03:33:10;18.50;98.60
27506;DHT22;14939;43.596;1.320;2023-06-19T03:35:36;18.50;98.30
27506;DHT22;14939;43.596;1.320;2023-06-19T03:38:01;18.50;98.50
27506;DHT22;14939;43.596;1.320;2023-06-19T03:40:27;18.50;98.50
27506;DHT22;14939;43.596;1.320;2023-06-19T03:42:53;18.50;98.30
27506;DHT22;14939;43.596;1.320;2023-06-19T03:45:18;18.40;98.50
27506;DHT22;14939;43.596;1.320;2023-06-19T03:47:44;18.40;98.20
27506;DHT22;14939;43.596;1.320;2023-06-19T03:50:09;18.40;98.60
27506;DHT22;14939;43.596;1.320;2023-06-19T03:52:36;18.40;98.80
27506;DHT22;14939;43.596;1.320;2023-06-19T03:55:02;18.40;98.40
27506;DHT22;14939;43.596;1.320;2023-06-19T03:57:28;18.40;98.30
27506;DHT22;14939;43.596;1.320;2023-06-19T03:59:53;18.50;97.70
27506;DHT22;14939;43.596;1.320;2023-06-19T04:02:19;18.50;97.80
27506;DHT22;14939;43.596;1.320;2023-06-19T04:04:44;18.50;97.60
27506;DHT22;14939;43.596;1.320;2023-06-19T04:07:10;18.50;98.70
27506;DHT22;14939;43.596;1.320;2023-06-19T04:09:35;18.50;98.30
27506;DHT22;14939;43.596;1.320;2023-06-19T04:12:01;18.50;98.50
27506;DHT22;14939;43.596;1.320;2023-06-19T04:14:27;18.50;98.10
27506;DHT22;14939;43.596;1.320;2023-06-19T04:16:52;18.50;98.50
27506;DHT22;14939;43.596;1.320;2023-06-19T04:19:18;18.50;98.20
27506;DHT22;14939;43.596;1.320;2023-06-19T04:21:43;18.50;97.70
27506;DHT22;14939;43.596;1.320;2023-06-19T04:24:09;18.60;97.30
27506;DHT22;14939;43.596;1.320;2023-06-19T04:26:34;18.60;97.40
27506;DHT22;14939;43.596;1.320;2023-06-19T04:29:02;18.60;97.70
27506;DHT22;14939;43.596;1.320;2023-06-19T04:31:27;18.50;98.50
27506;DHT22;14939;43.596;1.320;2023-06-19T04:33:54;18.50;98.20
27506;DHT22;14939;43.596;1.320;2023-06-19T04:36:21;18.50;98.40
27506;DHT22;14939;43.596;1.320;2023-06-19T04:38:47;18.50;98.20
27506;DHT22;14939;43.596;1.320;2023-06-19T04:41:12;18.50;98.30
27506;DHT22;14939;43.596;1.320;2023-06-19T04:43:39;18.50;98.00
27506;DHT22;14939;43.596;1.320;2023-06-19T04:46:06;18.60;97.80
27506;DHT22;14939;43.596;1.320;2023-06-19T04:48:32;18.60;98.10
27506;DHT22;14939;43.596;1.320;2023-06-19T04:51:01;18.70;98.20
27506;DHT22;14939;43.596;1.320;2023-06-19T04:53:26;18.70;97.90
27506;DHT22;14939;43.596;1.320;2023-06-19T04:55:52;18.80;97.70
27506;DHT22;14939;43.596;1.320;2023-06-19T04:58:20;18.90;97.70
27506;DHT22;14939;43.596;1.320;2023-06-19T05:00:46;18.90;97.60
27506;DHT22;14939;43.596;1.320;2023-06-19T05:03:17;18.90;96.60
27506;DHT22;14939;43.596;1.320;2023-06-19T05:05:43;18.90;97.20
27506;DHT22;14939;43.596;1.320;2023-06-19T05:08:09;18.90;96.40
27506;DHT22;14939;43.596;1.320;2023-06-19T05:10:34;18.90;96.00
27506;DHT22;14939;43.596;1.320;2023-06-19T05:13:00;18.90;96.00
27506;DHT22;14939;43.596;1.320;2023-06-19T05:15:27;18.90;96.50
27506;DHT22;14939;43.596;1.320;2023-06-19T05:17:53;18.90;96.80
27506;DHT22;14939;43.596;1.320;2023-06-19T05:20:19;18.80;97.00
27506;DHT22;14939;43.596;1.320;2023-06-19T05:22:44;18.90;96.60
27506;DHT22;14939;43.596;1.320;2023-06-19T05:25:10;18.90;97.00
27506;DHT22;14939;43.596;1.320;2023-06-19T05:27:36;18.90;97.40
27506;DHT22;14939;43.596;1.320;2023-06-19T05:30:01;19.00;97.50
27506;DHT22;14939;43.596;1.320;2023-06-19T05:32:27;19.10;96.70
27506;DHT22;14939;43.596;1.320;2023-06-19T05:34:53;19.20;97.60
27506;DHT22;14939;43.596;1.320;2023-06-19T05:37:18;19.30;97.40
27506;DHT22;14939;43.596;1.320;2023-06-19T05:39:44;19.50;96.80
27506;DHT22;14939;43.596;1.320;2023-06-19T05:42:09;19.60;96.60
27506;DHT22;14939;43.596;1.320;2023-06-19T05:44:35;19.80;95.70
27506;DHT22;14939;43.596;1.320;2023-06-19T05:47:00;20.10;95.00
27506;DHT22;14939;43.596;1.320;2023-06-19T05:49:26;20.30;94.30
27506;DHT22;14939;43.596;1.320;2023-06-19T05:51:51;20.50;93.30
27506;DHT22;14939;43.596;1.320;2023-06-19T05:54:17;20.60;93.30
27506;DHT22;14939;43.596;1.320;2023-06-19T05:56:43;20.80;92.80
27506;DHT22;14939;43.596;1.320;2023-06-19T05:59:08;20.90;92.80
27506;DHT22;14939;43.596;1.320;2023-06-19T06:01:34;20.90;91.30
27506;DHT22;14939;43.596;1.320;2023-06-19T06:03:59;20.90;91.60
27506;DHT22;14939;43.596;1.320;2023-06-19T06:06:26;20.80;91.60
27506;DHT22;14939;43.596;1.320;2023-06-19T06:08:52;20.80;91.80
27506;DHT22;14939;43.596;1.320;2023-06-19T06:11:18;20.80;91.20
27506;DHT22;14939;43.596;1.320;2023-06-19T06:13:43;20.70;92.40
27506;DHT22;14939;43.596;1.320;2023-06-19T06:16:09;20.70;92.40
27506;DHT22;14939;43.596;1.320;2023-06-19T06:18:35;20.60;92.40
27506;DHT22;14939;43.596;1.320;2023-06-19T06:21:00;20.60;92.00
27506;DHT22;14939;43.596;1.320;2023-06-19T06:23:26;20.70;92.20
27506;DHT22;14939;43.596;1.320;2023-06-19T06:25:51;20.80;91.90
27506;DHT22;14939;43.596;1.320;2023-06-19T06:28:17;20.80;91.80
27506;DHT22;14939;43.596;1.320;2023-06-19T06:30:43;20.80;91.50
27506;DHT22;14939;43.596;1.320;2023-06-19T06:33:08;20.90;91.20
27506;DHT22;14939;43.596;1.320;2023-06-19T06:35:34;20.90;91.30
27506;DHT22;14939;43.596;1.320;2023-06-19T06:38:01;21.00;91.60
27506;DHT22;14939;43.596;1.320;2023-06-19T06:40:27;21.00;91.00
27506;DHT22;14939;43.596;1.320;2023-06-19T06:42:52;21.10;90.60
27506;DHT22;14939;43.596;1.320;2023-06-19T06:45:19;21.20;90.20
27506;DHT22;14939;43.596;1.320;2023-06-19T06:47:44;21.20;90.50
27506;DHT22;14939;43.596;1.320;2023-06-19T06:50:10;21.00;90.50
27506;DHT22;14939;43.596;1.320;2023-06-19T06:52:36;21.00;90.40
27506;DHT22;14939;43.596;1.320;2023-06-19T06:55:01;20.90;91.00
27506;DHT22;14939;43.596;1.320;2023-06-19T06:57:27;20.80;91.30
27506;DHT22;14939;43.596;1.320;2023-06-19T06:59:52;20.80;91.10
27506;DHT22;14939;43.596;1.320;2023-06-19T07:02:18;20.70;91.60
27506;DHT22;14939;43.596;1.320;2023-06-19T07:04:43;20.70;92.00
27506;DHT22;14939;43.596;1.320;2023-06-19T07:07:09;20.70;91.80
27506;DHT22;14939;43.596;1.320;2023-06-19T07:09:34;20.60;92.20
27506;DHT22;14939;43.596;1.320;2023-06-19T07:12:00;20.70;92.50
27506;DHT22;14939;43.596;1.320;2023-06-19T07:14:29;20.60;92.80
27506;DHT22;14939;43.596;1.320;2023-06-19T07:16:55;20.60;93.40
27506;DHT22;14939;43.596;1.320;2023-06-19T07:19:20;20.50;93.50
27506;DHT22;14939;43.596;1.320;2023-06-19T07:21:46;20.40;94.00
27506;DHT22;14939;43.596;1.320;2023-06-19T07:24:12;20.40;94.10
27506;DHT22;14939;43.596;1.320;2023-06-19T07:26:37;20.40;95.00
27506;DHT22;14939;43.596;1.320;2023-06-19T07:29:03;20.30;95.80
27506;DHT22;14939;43.596;1.320;2023-06-19T07:31:28;20.30;95.80
27506;DHT22;14939;43.596;1.320;2023-06-19T07:33:54;20.30;96.10
27506;DHT22;14939;43.596;1.320;2023-06-19T07:36:19;20.40;96.80
27506;DHT22;14939;43.596;1.320;2023-06-19T07:38:45;20.40;96.70
27506;DHT22;14939;43.596;1.320;2023-06-19T07:41:10;20.60;96.50
27506;DHT22;14939;43.596;1.320;2023-06-19T07:43:37;20.70;95.80
27506;DHT22;14939;43.596;1.320;2023-06-19T07:46:02;20.80;94.10
27506;DHT22;14939;43.596;1.320;2023-06-19T07:48:28;20.80;94.90
27506;DHT22;14939;43.596;1.320;2023-06-19T07:50:54;20.90;94.10
27506;DHT22;14939;43.596;1.320;2023-06-19T07:53:20;20.90;94.00
27506;DHT22;14939;43.596;1.320;2023-06-19T07:55:45;21.00;94.20
27506;DHT22;14939;43.596;1.320;2023-06-19T07:58:11;21.10;93.40
27506;DHT22;14939;43.596;1.320;2023-06-19T08:00:36;21.10;92.50
27506;DHT22;14939;43.596;1.320;2023-06-19T08:03:05;21.10;93.40
27506;DHT22;14939;43.596;1.320;2023-06-19T08:05:31;21.20;93.40
27506;DHT22;14939;43.596;1.320;2023-06-19T08:07:56;21.40;93.80
27506;DHT22;14939;43.596;1.320;2023-06-19T08:10:23;21.70;93.10
27506;DHT22;14939;43.596;1.320;2023-06-19T08:12:49;21.90;93.20
27506;DHT22;14939;43.596;1.320;2023-06-19T08:15:14;22.00;91.50
27506;DHT22;14939;43.596;1.320;2023-06-19T08:17:40;22.10;90.40
27506;DHT22;14939;43.596;1.320;2023-06-19T08:20:06;22.10;90.10
27506;DHT22;14939;43.596;1.320;2023-06-19T08:22:32;22.40;90.70
27506;DHT22;14939;43.596;1.320;2023-06-19T08:24:58;22.70;89.90
27506;DHT22;14939;43.596;1.320;2023-06-19T08:27:23;22.60;85.90
27506;DHT22;14939;43.596;1.320;2023-06-19T08:29:49;22.30;85.80
27506;DHT22;14939;43.596;1.320;2023-06-19T08:32:14;22.10;85.10
27506;DHT22;14939;43.596;1.320;2023-06-19T08:34:40;21.90;86.20
27506;DHT22;14939;43.596;1.320;2023-06-19T08:37:06;21.90;88.60
27506;DHT22;14939;43.596;1.320;2023-06-19T08:39:32;21.70;87.00
27506;DHT22;14939;43.596;1.320;2023-06-19T08:41:57;21.40;88.30
27506;DHT22;14939;43.596;1.320;2023-06-19T08:44:23;21.40;90.10
27506;DHT22;14939;43.596;1.320;2023-06-19T08:46:48;21.40;90.10
27506;DHT22;14939;43.596;1.320;2023-06-19T08:49:14;21.60;91.50
27506;DHT22;14939;43.596;1.320;2023-06-19T08:51:40;21.70;91.20
27506;DHT22;14939;43.596;1.320;2023-06-19T08:54:07;21.90;90.30
27506;DHT22;14939;43.596;1.320;2023-06-19T08:56:33;22.10;91.20
27506;DHT22;14939;43.596;1.320;2023-06-19T08:59:15;22.40;90.40
27506;DHT22;14939;43.596;1.320;2023-06-19T09:01:48;22.60;90.20
27506;DHT22;14939;43.596;1.320;2023-06-19T09:04:18;22.50;88.70
27506;DHT22;14939;43.596;1.320;2023-06-19T09:06:57;22.40;86.90
27506;DHT22;14939;43.596;1.320;2023-06-19T09:09:24;22.30;89.90
27506;DHT22;14939;43.596;1.320;2023-06-19T09:11:56;22.20;90.40
27506;DHT22;14939;43.596;1.320;2023-06-19T09:14:24;22.20;90.20
27506;DHT22;14939;43.596;1.320;2023-06-19T09:16:49;22.30;90.20
27506;DHT22;14939;43.596;1.320;2023-06-19T09:19:19;22.40;90.80
27506;DHT22;14939;43.596;1.320;2023-06-19T09:21:45;22.40;90.10
27506;DHT22;14939;43.596;1.320;2023-06-19T09:24:11;22.50;90.00
27506;DHT22;14939;43.596;1.320;2023-06-19T09:26:36;22.50;89.90
27506;DHT22;14939;43.596;1.320;2023-06-19T09:29:12;22.50;90.00
27506;DHT22;14939;43.596;1.320;2023-06-19T09:31:38;22.40;90.20
27506;DHT22;14939;43.596;1.320;2023-06-19T09:34:04;22.40;90.20
27506;DHT22;14939;43.596;1.320;2023-06-19T09:36:31;22.40;90.00
27506;DHT22;14939;43.596;1.320;2023-06-19T09:38:57;22.40;90.60
27506;DHT22;14939;43.596;1.320;2023-06-19T09:41:22;22.40;90.90
27506;DHT22;14939;43.596;1.320;2023-06-19T09:43:49;22.40;90.50
27506;DHT22;14939;43.596;1.320;2023-06-19T09:46:15;22.40;90.70
27506;DHT22;14939;43.596;1.320;2023-06-19T09:48:43;22.40;90.70
27506;DHT22;14939;43.596;1.320;2023-06-19T09:53:37;22.80;89.30
27506;DHT22;14939;43.596;1.320;2023-06-19T09:56:03;23.20;88.30
27506;DHT22;14939;43.596;1.320;2023-06-19T09:58:29;23.70;86.70
27506;DHT22;14939;43.596;1.320;2023-06-19T10:00:54;24.20;85.00
27506;DHT22;14939;43.596;1.320;2023-06-19T10:03:20;24.60;78.00
27506;DHT22;14939;43.596;1.320;2023-06-19T10:05:46;24.80;75.80
27506;DHT22;14939;43.596;1.320;2023-06-19T10:08:11;25.00;74.70
27506;DHT22;14939;43.596;1.320;2023-06-19T10:10:45;25.20;69.10
27506;DHT22;14939;43.596;1.320;2023-06-19T10:13:12;25.30;71.00
27506;DHT22;14939;43.596;1.320;2023-06-19T10:15:42;25.40;69.40
27506;DHT22;14939;43.596;1.320;2023-06-19T10:18:13;25.60;69.10
27506;DHT22;14939;43.596;1.320;2023-06-19T10:20:41;25.40;68.40
27506;DHT22;14939;43.596;1.320;2023-06-19T10:23:08;25.10;66.40
27506;DHT22;14939;43.596;1.320;2023-06-19T10:25:34;24.80;67.90
27506;DHT22;14939;43.596;1.320;2023-06-19T10:28:00;24.60;69.70
27506;DHT22;14939;43.596;1.320;2023-06-19T10:30:26;24.40;70.10
27506;DHT22;14939;43.596;1.320;2023-06-19T10:32:52;24.30;69.90
27506;DHT22;14939;43.596;1.320;2023-06-19T10:35:18;24.20;69.50
27506;DHT22;14939;43.596;1.320;2023-06-19T10:37:49;24.10;70.90
27506;DHT22;14939;43.596;1.320;2023-06-19T10:40:15;24.00;71.30
27506;DHT22;14939;43.596;1.320;2023-06-19T10:42:41;24.00;72.70
27506;DHT22;14939;43.596;1.320;2023-06-19T10:45:08;24.00;72.40
27506;DHT22;14939;43.596;1.320;2023-06-19T10:47:43;24.10;72.00
27506;DHT22;14939;43.596;1.320;2023-06-19T10:50:12;24.20;70.40
27506;DHT22;14939;43.596;1.320;2023-06-19T10:52:42;24.50;70.30
27506;DHT22;14939;43.596;1.320;2023-06-19T10:55:08;24.80;67.40
27506;DHT22;14939;43.596;1.320;2023-06-19T10:57:34;25.30;67.20
27506;DHT22;14939;43.596;1.320;2023-06-19T10:59:59;25.80;66.90
27506;DHT22;14939;43.596;1.320;2023-06-19T11:02:25;26.20;64.30
27506;DHT22;14939;43.596;1.320;2023-06-19T11:04:54;26.30;62.20
27506;DHT22;14939;43.596;1.320;2023-06-19T11:07:20;26.50;59.90
27506;DHT22;14939;43.596;1.320;2023-06-19T11:09:47;26.80;58.80
27506;DHT22;14939;43.596;1.320;2023-06-19T11:12:18;27.00;56.50
27506;DHT22;14939;43.596;1.320;2023-06-19T11:14:43;27.10;54.90
27506;DHT22;14939;43.596;1.320;2023-06-19T11:17:09;27.00;53.60
27506;DHT22;14939;43.596;1.320;2023-06-19T11:19:35;27.00;52.80
27506;DHT22;14939;43.596;1.320;2023-06-19T11:22:00;27.10;50.60
27506;DHT22;14939;43.596;1.320;2023-06-19T11:24:28;27.10;51.70
27506;DHT22;14939;43.596;1.320;2023-06-19T11:26:53;27.00;50.50
27506;DHT22;14939;43.596;1.320;2023-06-19T11:29:21;27.00;50.60
27506;DHT22;14939;43.596;1.320;2023-06-19T11:31:48;27.00;50.80
27506;DHT22;14939;43.596;1.320;2023-06-19T11:34:14;27.10;50.20
27506;DHT22;14939;43.596;1.320;2023-06-19T11:36:40;27.10;51.20
27506;DHT22;14939;43.596;1.320;2023-06-19T11:39:09;27.10;48.70
27506;DHT22;14939;43.596;1.320;2023-06-19T11:41:35;27.20;50.50
27506;DHT22;14939;43.596;1.320;2023-06-19T11:44:03;27.00;50.10
27506;DHT22;14939;43.596;1.320;2023-06-19T11:46:29;26.60;50.90
27506;DHT22;14939;43.596;1.320;2023-06-19T11:48:55;26.30;51.10
27506;DHT22;14939;43.596;1.320;2023-06-19T11:51:21;26.10;51.70
27506;DHT22;14939;43.596;1.320;2023-06-19T11:53:47;25.90;51.70
27506;DHT22;14939;43.596;1.320;2023-06-19T11:56:12;25.70;53.10
27506;DHT22;14939;43.596;1.320;2023-06-19T11:58:38;25.60;54.10
27506;DHT22;14939;43.596;1.320;2023-06-19T12:01:03;25.60;52.50
27506;DHT22;14939;43.596;1.320;2023-06-19T12:03:29;25.60;53.40
27506;DHT22;14939;43.596;1.320;2023-06-19T12:05:54;25.50;53.50
27506;DHT22;14939;43.596;1.320;2023-06-19T12:08:20;25.30;55.00
27506;DHT22;14939;43.596;1.320;2023-06-19T12:10:45;25.20;55.50
27506;DHT22;14939;43.596;1.320;2023-06-19T12:13:11;25.10;55.90
27506;DHT22;14939;43.596;1.320;2023-06-19T12:15:36;24.80;56.20
27506;DHT22;14939;43.596;1.320;2023-06-19T12:18:02;24.80;57.40
27506;DHT22;14939;43.596;1.320;2023-06-19T12:20:29;24.70;57.70
27506;DHT22;14939;43.596;1.320;2023-06-19T12:22:55;24.50;57.80
27506;DHT22;14939;43.596;1.320;2023-06-19T12:25:20;24.40;58.30
27506;DHT22;14939;43.596;1.320;2023-06-19T12:27:46;24.20;59.10
27506;DHT22;14939;43.596;1.320;2023-06-19T12:30:12;24.10;59.70
27506;DHT22;14939;43.596;1.320;2023-06-19T12:32:37;24.00;61.00
27506;DHT22;14939;43.596;1.320;2023-06-19T12:35:03;23.90;61.80
27506;DHT22;14939;43.596;1.320;2023-06-19T12:37:29;23.80;64.40
27506;DHT22;14939;43.596;1.320;2023-06-19T12:39:54;23.80;64.70
27506;DHT22;14939;43.596;1.320;2023-06-19T12:42:20;23.70;65.40
27506;DHT22;14939;43.596;1.320;2023-06-19T12:44:45;23.60;66.50
27506;DHT22;14939;43.596;1.320;2023-06-19T12:47:11;23.40;68.40
27506;DHT22;14939;43.596;1.320;2023-06-19T12:49:37;23.40;68.50
27506;DHT22;14939;43.596;1.320;2023-06-19T12:52:02;23.40;68.60
27506;DHT22;14939;43.596;1.320;2023-06-19T12:54:28;23.30;69.50
27506;DHT22;14939;43.596;1.320;2023-06-19T12:56:54;23.30;73.10
27506;DHT22;14939;43.596;1.320;2023-06-19T12:59:19;23.20;70.40
27506;DHT22;14939;43.596;1.320;2023-06-19T13:01:45;23.20;71.80
27506;DHT22;14939;43.596;1.320;2023-06-19T13:04:11;23.20;72.00
27506;DHT22;14939;43.596;1.320;2023-06-19T13:06:37;23.20;71.90
27506;DHT22;14939;43.596;1.320;2023-06-19T13:09:03;23.10;73.90
27506;DHT22;14939;43.596;1.320;2023-06-19T13:11:30;23.00;75.20
27506;DHT22;14939;43.596;1.320;2023-06-19T13:13:55;23.00;75.00
27506;DHT22;14939;43.596;1.320;2023-06-19T13:16:21;23.00;73.90
27506;DHT22;14939;43.596;1.320;2023-06-19T13:18:47;23.00;73.80
27506;DHT22;14939;43.596;1.320;2023-06-19T13:21:12;23.10;74.80
27506;DHT22;14939;43.596;1.320;2023-06-19T13:23:38;23.10;75.10
27506;DHT22;14939;43.596;1.320;2023-06-19T13:26:05;23.10;73.70
27506;DHT22;14939;43.596;1.320;2023-06-19T13:28:31;23.10;73.40
27506;DHT22;14939;43.596;1.320;2023-06-19T13:30:56;23.20;72.30
27506;DHT22;14939;43.596;1.320;2023-06-19T13:33:22;23.20;74.10
27506;DHT22;14939;43.596;1.320;2023-06-19T13:35:48;23.10;71.80
27506;DHT22;14939;43.596;1.320;2023-06-19T13:38:13;23.20;72.50
27506;DHT22;14939;43.596;1.320;2023-06-19T13:40:41;23.10;72.70
27506;DHT22;14939;43.596;1.320;2023-06-19T13:43:07;23.10;72.70
27506;DHT22;14939;43.596;1.320;2023-06-19T13:45:32;23.10;73.70
27506;DHT22;14939;43.596;1.320;2023-06-19T13:47:59;23.20;74.30
27506;DHT22;14939;43.596;1.320;2023-06-19T13:50:24;23.20;74.00
27506;DHT22;14939;43.596;1.320;2023-06-19T13:52:50;23.40;72.10
27506;DHT22;14939;43.596;1.320;2023-06-19T13:55:15;23.40;71.10
27506;DHT22;14939;43.596;1.320;2023-06-19T13:57:41;23.60;70.00
27506;DHT22;14939;43.596;1.320;2023-06-19T14:00:07;23.90;71.70
27506;DHT22;14939;43.596;1.320;2023-06-19T14:02:34;24.20;68.40
27506;DHT22;14939;43.596;1.320;2023-06-19T14:04:59;24.30;67.60
27506;DHT22;14939;43.596;1.320;2023-06-19T14:07:25;24.50;68.50
27506;DHT22;14939;43.596;1.320;2023-06-19T14:09:52;24.60;66.10
27506;DHT22;14939;43.596;1.320;2023-06-19T14:12:18;24.60;64.70
27506;DHT22;14939;43.596;1.320;2023-06-19T14:14:44;24.80;66.70
27506;DHT22;14939;43.596;1.320;2023-06-19T14:17:09;24.90;64.50
27506;DHT22;14939;43.596;1.320;2023-06-19T14:19:35;25.10;62.70
27506;DHT22;14939;43.596;1.320;2023-06-19T14:22:01;25.40;61.60
27506;DHT22;14939;43.596;1.320;2023-06-19T14:24:27;25.70;62.60
27506;DHT22;14939;43.596;1.320;2023-06-19T14:26:53;25.80;61.50
27506;DHT22;14939;43.596;1.320;2023-06-19T14:29:18;25.80;59.30
27506;DHT22;14939;43.596;1.320;2023-06-19T14:31:46;25.70;62.20
27506;DHT22;14939;43.596;1.320;2023-06-19T14:34:11;25.60;61.70
27506;DHT22;14939;43.596;1.320;2023-06-19T14:36:37;25.50;62.10
27506;DHT22;14939;43.596;1.320;2023-06-19T14:39:03;25.40;61.60
27506;DHT22;14939;43.596;1.320;2023-06-19T14:41:28;25.20;62.30
27506;DHT22;14939;43.596;1.320;2023-06-19T14:43:54;25.10;61.60
27506;DHT22;14939;43.596;1.320;2023-06-19T14:46:20;25.10;60.70
27506;DHT22;14939;43.596;1.320;2023-06-19T14:48:45;25.00;60.90
27506;DHT22;14939;43.596;1.320;2023-06-19T14:51:11;25.10;61.60
27506;DHT22;14939;43.596;1.320;2023-06-19T14:53:37;25.00;59.30
27506;DHT22;14939;43.596;1.320;2023-06-19T14:56:02;25.00;57.70
27506;DHT22;14939;43.596;1.320;2023-06-19T14:58:28;25.20;58.90
27506;DHT22;14939;43.596;1.320;2023-06-19T15:00:54;25.20;58.30
27506;DHT22;14939;43.596;1.320;2023-06-19T15:03:19;25.20;57.60
27506;DHT22;14939;43.596;1.320;2023-06-19T15:05:45;25.10;57.70
27506;DHT22;14939;43.596;1.320;2023-06-19T15:08:10;25.20;55.20
27506;DHT22;14939;43.596;1.320;2023-06-19T15:10:36;25.20;54.60
27506;DHT22;14939;43.596;1.320;2023-06-19T15:13:03;25.40;54.70
27506;DHT22;14939;43.596;1.320;2023-06-19T15:15:29;25.60;50.70
27506;DHT22;14939;43.596;1.320;2023-06-19T15:17:55;25.80;49.70
27506;DHT22;14939;43.596;1.320;2023-06-19T15:20:22;26.50;48.10
27506;DHT22;14939;43.596;1.320;2023-06-19T15:22:48;27.20;46.70
27506;DHT22;14939;43.596;1.320;2023-06-19T15:25:13;27.90;42.30
27506;DHT22;14939;43.596;1.320;2023-06-19T15:27:39;28.20;41.50